createdAt,value
2023-03-03T00:00:05.389Z,11.60
2023-03-03T00:02:32.043Z,11.75
2023-03-03T00:05:00.242Z,12.20
2023-03-03T00:07:27.984Z,12.32
2023-03-03T00:09:54.712Z,13.02
2023-03-03T00:12:25.663Z,12.50
2023-03-03T00:14:52.518Z,13.15
2023-03-03T00:17:25.903Z,13.50
2023-03-03T00:19:53.645Z,13.13
2023-03-03T00:22:36.570Z,13.68
2023-03-03T00:25:28.905Z,13.00
2023-03-03T00:28:31.184Z,13.13
2023-03-03T00:31:00.584Z,13.85
2023-03-03T00:33:33.066Z,14.07
2023-03-03T00:36:16.459Z,12.82
2023-03-03T00:38:43.749Z,13.25
2023-03-03T00:41:27.857Z,14.10
2023-03-03T00:43:54.967Z,14.15
2023-03-03T00:46:23.429Z,15.48
2023-03-03T00:48:51.380Z,14.35
2023-03-03T00:51:28.069Z,15.67
2023-03-03T00:53:55.593Z,15.07
2023-03-03T00:56:22.723Z,14.45
2023-03-03T00:58:50.043Z,16.15
2023-03-03T01:01:17.824Z,17.58
2023-03-03T01:03:44.672Z,17.27
2023-03-03T01:06:13.475Z,18.75
2023-03-03T01:11:20.928Z,17.95
2023-03-03T01:13:50.037Z,18.80
2023-03-03T01:16:17.681Z,19.42
2023-03-03T01:18:44.422Z,19.52
2023-03-03T01:21:12.198Z,20.80
2023-03-03T01:23:39.061Z,22.08
2023-03-03T01:26:07.177Z,22.27
2023-03-03T01:28:34.637Z,22.98
2023-03-03T01:31:03.960Z,24.08
2023-03-03T01:33:31.775Z,25.60
2023-03-03T01:35:58.981Z,24.27
2023-03-03T01:38:25.825Z,25.52
2023-03-03T01:40:58.130Z,25.70
2023-03-03T01:43:28.891Z,25.80
2023-03-03T01:45:58.477Z,23.35
2023-03-03T01:48:32.822Z,24.00
2023-03-03T01:51:06.275Z,24.08
2023-03-03T01:53:44.665Z,24.73
2023-03-03T01:56:11.923Z,24.67
2023-03-03T01:58:46.679Z,25.48
2023-03-03T02:01:27.469Z,25.60
2023-03-03T02:03:54.762Z,26.20
2023-03-03T02:06:28.506Z,26.25
2023-03-03T02:09:02.178Z,25.92
2023-03-03T02:11:32.428Z,27.20
2023-03-03T02:13:59.088Z,28.42
2023-03-03T02:16:26.662Z,28.27
2023-03-03T02:18:53.481Z,30.80
2023-03-03T02:21:22.675Z,28.08
2023-03-03T02:23:59.671Z,26.60
2023-03-03T02:26:28.040Z,26.75
2023-03-03T02:28:54.837Z,25.85
2023-03-03T02:31:24.112Z,25.95
2023-03-03T02:33:53.068Z,25.08
2023-03-03T02:36:29.548Z,24.75
2023-03-03T02:39:19.491Z,26.85
2023-03-03T02:42:01.052Z,27.40
2023-03-03T02:44:30.397Z,26.35
2023-03-03T02:46:57.649Z,25.88
2023-03-03T02:49:30.910Z,26.45
2023-03-03T02:51:58.052Z,26.55
2023-03-03T02:54:27.851Z,26.33
2023-03-03T02:56:54.510Z,26.58
2023-03-03T02:59:21.198Z,26.00
2023-03-03T03:01:49.674Z,25.50
2023-03-03T03:04:22.364Z,24.85
2023-03-03T03:06:50.190Z,26.38
2023-03-03T03:09:17.969Z,25.13
2023-03-03T03:11:45.007Z,26.55
2023-03-03T03:14:12.996Z,26.40
2023-03-03T03:16:40.150Z,25.57
2023-03-03T03:19:07.250Z,24.42
2023-03-03T03:21:34.110Z,24.20
2023-03-03T03:24:00.801Z,22.90
2023-03-03T03:26:28.256Z,21.88
2023-03-03T03:28:55.561Z,23.98
2023-03-03T03:31:23.045Z,24.13
2023-03-03T03:33:50.196Z,24.23
2023-03-03T03:36:17.858Z,23.98
2023-03-03T03:38:45.323Z,24.90
2023-03-03T03:41:13.866Z,24.45
2023-03-03T03:43:41.468Z,25.00
2023-03-03T03:46:08.673Z,22.25
2023-03-03T03:48:36.114Z,21.38
2023-03-03T03:51:03.329Z,22.17
2023-03-03T03:53:30.087Z,21.75
2023-03-03T03:55:56.903Z,21.90
2023-03-03T03:58:23.741Z,19.92
2023-03-03T04:00:50.570Z,20.30
2023-03-03T04:03:17.377Z,19.48
2023-03-03T04:05:44.302Z,19.27
2023-03-03T04:08:11.264Z,19.88
2023-03-03T04:10:37.999Z,19.52
2023-03-03T04:13:04.688Z,19.42
2023-03-03T04:15:32.463Z,19.77
2023-03-03T04:17:59.288Z,18.65
2023-03-03T04:20:25.994Z,18.92
2023-03-03T04:22:52.660Z,18.58
2023-03-03T04:25:19.851Z,18.55
2023-03-03T04:27:46.832Z,22.95
2023-03-03T04:30:14.999Z,19.08
2023-03-03T04:32:42.041Z,20.05
2023-03-03T04:35:09.185Z,18.77
2023-03-03T04:37:37.595Z,18.15
2023-03-03T04:40:08.841Z,17.45
2023-03-03T04:42:36.113Z,17.77
2023-03-03T04:45:04.134Z,16.55
2023-03-03T04:47:32.462Z,22.33
2023-03-03T04:49:59.318Z,18.10
2023-03-03T04:52:25.981Z,17.27
2023-03-03T04:54:52.687Z,18.20
2023-03-03T04:57:19.385Z,23.77
2023-03-03T04:59:46.323Z,15.80
2023-03-03T05:02:13.217Z,14.88
2023-03-03T05:04:40.043Z,20.08
2023-03-03T05:07:06.927Z,21.90
2023-03-03T05:09:33.813Z,24.35
2023-03-03T05:12:00.441Z,19.15
2023-03-03T05:14:28.480Z,21.58
2023-03-03T05:16:55.531Z,22.38
2023-03-03T05:19:22.192Z,17.33
2023-03-03T05:21:49.011Z,21.88
2023-03-03T05:24:15.751Z,29.63
2023-03-03T05:26:42.775Z,21.35
2023-03-03T05:29:10.067Z,21.40
2023-03-03T05:31:37.921Z,21.70
2023-03-03T05:34:04.724Z,20.00
2023-03-03T05:36:31.376Z,42.03
2023-03-03T05:38:58.035Z,44.28
2023-03-03T05:41:24.828Z,28.63
2023-03-03T05:43:51.683Z,64.53
2023-03-03T05:46:18.539Z,39.17
2023-03-03T05:48:45.656Z,21.30
2023-03-03T05:51:12.530Z,28.67
2023-03-03T05:53:39.443Z,25.55
2023-03-03T05:56:06.577Z,33.83
2023-03-03T05:58:33.340Z,39.08
2023-03-03T06:01:01.112Z,26.75
2023-03-03T06:03:27.782Z,26.13
2023-03-03T06:05:54.466Z,20.70
2023-03-03T06:08:23.296Z,19.20
2023-03-03T06:13:16.899Z,19.65
2023-03-03T06:15:45.722Z,18.63
2023-03-03T06:20:39.426Z,15.02
2023-03-03T06:23:06.378Z,20.50
2023-03-03T06:25:35.640Z,15.63
2023-03-03T06:28:03.900Z,15.13
2023-03-03T06:30:30.739Z,22.08
2023-03-03T06:32:58.692Z,20.85
2023-03-03T06:35:25.494Z,17.50
2023-03-03T06:37:52.279Z,14.68
2023-03-03T06:40:19.110Z,27.25
2023-03-03T06:42:46.082Z,19.45
2023-03-03T06:45:14.600Z,12.27
2023-03-03T06:47:41.880Z,12.77
2023-03-03T06:50:11.600Z,16.48
2023-03-03T06:52:38.651Z,12.38
2023-03-03T06:55:13.900Z,17.52
2023-03-03T06:57:41.217Z,13.32
2023-03-03T07:00:20.338Z,18.88
2023-03-03T07:02:51.325Z,11.80
2023-03-03T07:05:19.185Z,13.35
2023-03-03T07:07:46.003Z,16.45
2023-03-03T07:10:36.935Z,14.20
2023-03-03T07:13:19.959Z,12.93
2023-03-03T07:15:48.068Z,11.85
2023-03-03T07:18:22.106Z,13.75
2023-03-03T07:20:49.635Z,10.60
2023-03-03T07:23:23.931Z,11.57
2023-03-03T07:25:51.575Z,18.20
2023-03-03T07:28:23.869Z,10.55
2023-03-03T07:30:51.327Z,13.73
2023-03-03T07:33:27.071Z,12.27
2023-03-03T07:35:55.614Z,11.98
2023-03-03T07:38:30.253Z,12.95
2023-03-03T07:41:02.732Z,13.05
2023-03-03T07:43:37.683Z,14.98
2023-03-03T07:46:10.734Z,15.95
2023-03-03T07:48:42.212Z,13.40
2023-03-03T07:51:23.015Z,14.35
2023-03-03T07:53:50.229Z,16.20
2023-03-03T07:56:31.119Z,13.63
2023-03-03T07:58:58.886Z,15.10
2023-03-03T08:01:40.870Z,16.85
2023-03-03T08:04:23.255Z,14.10
2023-03-03T08:06:51.712Z,11.65
2023-03-03T08:09:18.330Z,12.70
2023-03-03T08:12:13.594Z,11.60
2023-03-03T08:14:40.364Z,11.00
2023-03-03T08:17:23.865Z,12.23
2023-03-03T08:19:52.770Z,12.13
2023-03-03T08:24:51.954Z,11.02
2023-03-03T08:27:19.034Z,11.88
2023-03-03T08:29:48.449Z,15.07
2023-03-03T08:32:15.801Z,11.90
2023-03-03T08:34:42.968Z,12.90
2023-03-03T08:37:10.097Z,13.07
2023-03-03T08:39:37.295Z,13.10
2023-03-03T08:42:04.393Z,12.65
2023-03-03T08:44:31.535Z,17.67
2023-03-03T08:46:58.609Z,12.43
2023-03-03T08:49:25.742Z,12.98
2023-03-03T08:51:52.957Z,12.75
2023-03-03T08:54:20.222Z,12.80
2023-03-03T08:56:47.453Z,11.55
2023-03-03T08:59:14.522Z,12.68
2023-03-03T09:01:44.678Z,13.82
2023-03-03T09:04:11.999Z,11.30
2023-03-03T09:06:39.485Z,12.93
2023-03-03T09:09:06.834Z,11.20
2023-03-03T09:11:34.216Z,10.57
2023-03-03T09:14:15.238Z,11.73
2023-03-03T09:16:44.444Z,10.50
2023-03-03T09:19:23.533Z,12.10
2023-03-03T09:21:52.075Z,10.18
2023-03-03T09:24:22.612Z,9.90
2023-03-03T09:26:49.858Z,9.40
2023-03-03T09:29:18.985Z,10.20
2023-03-03T09:31:55.096Z,8.35
2023-03-03T09:34:40.412Z,8.35
2023-03-03T09:37:33.582Z,7.60
2023-03-03T09:40:01.843Z,8.15
2023-03-03T09:42:38.884Z,7.40
2023-03-03T09:45:20.873Z,9.18
2023-03-03T09:47:56.381Z,7.45
2023-03-03T09:50:36.412Z,7.88
2023-03-03T09:53:28.358Z,6.88
2023-03-03T09:56:22.001Z,6.70
2023-03-03T09:59:12.337Z,6.90
2023-03-03T10:02:00.021Z,7.07
2023-03-03T10:04:54.208Z,7.17
2023-03-03T10:07:29.699Z,6.15
2023-03-03T10:10:11.569Z,6.47
2023-03-03T10:13:01.383Z,9.13
2023-03-03T10:15:40.430Z,8.18
2023-03-03T10:18:24.371Z,8.75
2023-03-03T10:21:17.253Z,8.35
2023-03-03T10:23:51.953Z,6.60
2023-03-03T10:26:45.792Z,7.60
2023-03-03T10:29:34.135Z,7.97
2023-03-03T10:32:28.338Z,8.82
2023-03-03T10:35:04.898Z,9.27
2023-03-03T10:37:59.439Z,6.50
2023-03-03T10:40:30.098Z,6.68
2023-03-03T10:43:29.934Z,6.60
2023-03-03T10:46:13.216Z,5.95
2023-03-03T10:48:40.452Z,5.97
2023-03-03T10:51:48.062Z,5.78
2023-03-03T10:54:35.622Z,8.95
2023-03-03T10:57:22.988Z,6.30
2023-03-03T11:00:00.037Z,7.80
2023-03-03T11:02:27.460Z,7.50
2023-03-03T11:05:00.223Z,6.47
2023-03-03T11:07:32.071Z,5.85
2023-03-03T11:10:10.043Z,4.75
2023-03-03T11:13:03.217Z,8.95
2023-03-03T11:15:46.852Z,7.03
2023-03-03T11:18:22.303Z,6.97
2023-03-03T11:21:04.358Z,5.70
2023-03-03T11:23:50.772Z,5.15
2023-03-03T11:26:36.576Z,4.95
2023-03-03T11:29:11.506Z,6.07
2023-03-03T11:31:44.711Z,5.85
2023-03-03T11:34:37.459Z,5.68
2023-03-03T11:37:13.359Z,4.78
2023-03-03T11:39:41.318Z,6.43
2023-03-03T11:42:57.143Z,5.10
2023-03-03T11:45:43.692Z,4.93
2023-03-03T11:48:39.682Z,3.58
2023-03-03T11:51:12.551Z,2.88
2023-03-03T11:53:59.605Z,2.83
2023-03-03T11:56:29.177Z,3.25
2023-03-03T11:59:04.888Z,4.40
2023-03-03T12:01:46.893Z,3.85
2023-03-03T12:04:22.251Z,2.80
2023-03-03T12:07:25.079Z,3.33
2023-03-03T12:10:06.720Z,5.32
2023-03-03T12:12:36.587Z,5.75
2023-03-03T12:15:22.427Z,3.75
2023-03-03T12:18:01.710Z,4.95
2023-03-03T12:20:34.506Z,3.30
2023-03-03T12:23:18.275Z,2.50
2023-03-03T12:26:16.595Z,5.53
2023-03-03T12:28:53.702Z,2.60
2023-03-03T12:31:49.112Z,4.22
2023-03-03T12:34:45.771Z,7.93
2023-03-03T12:37:12.977Z,2.67
2023-03-03T12:39:58.459Z,3.40
2023-03-03T12:42:44.138Z,2.38
2023-03-03T12:45:23.377Z,2.55
2023-03-03T12:48:05.612Z,2.00
2023-03-03T12:50:32.730Z,2.55
2023-03-03T12:53:02.931Z,2.83
2023-03-03T12:55:49.940Z,4.15
2023-03-03T12:58:37.280Z,2.40
2023-03-03T13:01:08.312Z,3.05
2023-03-03T13:03:55.350Z,9.07
2023-03-03T13:06:29.962Z,2.58
2023-03-03T13:08:57.193Z,5.15
2023-03-03T13:11:31.161Z,2.47
2023-03-03T13:14:21.727Z,3.10
2023-03-03T13:16:55.021Z,1.73
2023-03-03T13:19:26.685Z,2.60
2023-03-03T13:21:56.322Z,2.58
2023-03-03T13:24:23.435Z,2.15
2023-03-03T13:26:50.499Z,3.35
2023-03-03T13:29:26.604Z,1.50
2023-03-03T13:32:00.471Z,3.60
2023-03-03T13:34:43.001Z,2.30
2023-03-03T13:37:28.499Z,4.10
2023-03-03T13:40:13.336Z,5.82
2023-03-03T13:42:55.920Z,5.13
2023-03-03T13:45:37.005Z,1.90
2023-03-03T13:48:27.834Z,0.73
2023-03-03T13:51:02.892Z,2.15
2023-03-03T13:53:56.223Z,3.72
2023-03-03T13:56:43.117Z,2.17
2023-03-03T13:59:18.183Z,1.83
2023-03-03T14:02:15.306Z,1.83
2023-03-03T14:04:54.432Z,2.83
2023-03-03T14:07:36.962Z,3.17
2023-03-03T14:10:07.048Z,2.05
2023-03-03T14:12:50.170Z,2.08
2023-03-03T14:15:24.741Z,1.90
2023-03-03T14:18:06.990Z,2.78
2023-03-03T14:20:51.995Z,1.67
2023-03-03T14:23:37.859Z,2.70
2023-03-03T14:26:05.080Z,1.52
2023-03-03T14:28:39.809Z,2.83
2023-03-03T14:31:18.520Z,1.10
2023-03-03T14:33:47.540Z,3.35
2023-03-03T14:36:16.223Z,2.63
2023-03-03T14:41:10.399Z,1.30
2023-03-03T14:43:38.936Z,4.00
2023-03-03T14:46:24.978Z,3.47
2023-03-03T14:48:53.278Z,2.33
2023-03-03T14:51:29.070Z,2.08
2023-03-03T14:53:57.377Z,2.78
2023-03-03T14:56:25.018Z,3.80
2023-03-03T14:58:54.245Z,3.42
2023-03-03T15:01:31.859Z,3.55
2023-03-03T15:04:05.173Z,6.33
2023-03-03T15:06:40.490Z,6.07
2023-03-03T15:09:29.722Z,2.17
2023-03-03T15:11:58.869Z,3.83
2023-03-03T15:14:38.230Z,2.53
2023-03-03T15:17:27.138Z,1.90
2023-03-03T15:20:08.929Z,2.05
2023-03-03T15:23:15.811Z,1.35
2023-03-03T15:26:06.835Z,3.50
2023-03-03T15:28:45.967Z,1.55
2023-03-03T15:31:49.422Z,3.92
2023-03-03T15:34:29.957Z,2.78
2023-03-03T15:37:06.491Z,2.78
2023-03-03T15:39:58.039Z,2.95
2023-03-03T15:42:42.812Z,3.70
2023-03-03T15:45:47.464Z,2.75
2023-03-03T15:48:34.228Z,3.42
2023-03-03T15:51:53.834Z,3.20
2023-03-03T15:54:35.867Z,1.52
2023-03-03T15:57:41.934Z,2.55
2023-03-03T16:00:44.538Z,2.92
2023-03-03T16:03:21.569Z,1.35
2023-03-03T16:05:56.763Z,4.47
2023-03-03T16:08:49.688Z,4.55
2023-03-03T16:11:31.324Z,6.68
2023-03-03T16:14:23.702Z,5.28
2023-03-03T16:17:20.500Z,3.50
2023-03-03T16:20:00.684Z,3.35
2023-03-03T16:23:08.226Z,3.60
2023-03-03T16:25:54.000Z,5.00
2023-03-03T16:28:37.850Z,5.03
2023-03-03T16:31:12.852Z,7.93
2023-03-03T16:34:01.144Z,5.95
2023-03-03T16:36:55.746Z,5.13
2023-03-03T16:39:25.987Z,3.10
2023-03-03T16:42:03.050Z,3.30
2023-03-03T16:45:07.390Z,5.63
2023-03-03T16:47:59.196Z,5.63
2023-03-03T16:51:06.752Z,5.10
2023-03-03T16:54:12.106Z,5.35
2023-03-03T16:57:06.276Z,5.70
2023-03-03T17:00:03.682Z,5.15
2023-03-03T17:02:58.788Z,3.97
2023-03-03T17:05:49.739Z,14.23
2023-03-03T17:08:46.773Z,4.35
2023-03-03T17:11:35.496Z,5.78
2023-03-03T17:14:18.642Z,9.13
2023-03-03T17:16:58.404Z,4.70
2023-03-03T17:19:25.097Z,8.90
2023-03-03T17:22:02.924Z,10.57
2023-03-03T17:25:00.873Z,9.27
2023-03-03T17:27:56.564Z,7.03
2023-03-03T17:31:04.764Z,6.95
2023-03-03T17:33:50.258Z,5.55
2023-03-03T17:36:32.598Z,9.20
2023-03-03T17:39:22.755Z,7.18
2023-03-03T17:42:14.715Z,5.97
2023-03-03T17:45:07.695Z,6.72
2023-03-03T17:47:55.669Z,9.32
2023-03-03T17:50:35.876Z,6.72
2023-03-03T17:53:44.116Z,6.15
2023-03-03T17:56:19.703Z,9.95
2023-03-03T17:59:08.197Z,6.03
2023-03-03T18:04:42.393Z,15.18
2023-03-03T18:07:46.212Z,9.77
2023-03-03T18:10:42.993Z,12.52
2023-03-03T18:13:22.372Z,8.35
2023-03-03T18:16:11.260Z,8.52
2023-03-03T18:19:02.704Z,13.55
2023-03-03T18:21:47.699Z,13.65
2023-03-03T18:24:49.568Z,11.43
2023-03-03T18:27:25.384Z,21.88
2023-03-03T18:30:10.675Z,14.40
2023-03-03T18:32:57.636Z,15.18
2023-03-03T18:35:33.320Z,15.73
2023-03-03T18:38:26.111Z,19.00
2023-03-03T18:41:12.315Z,13.70
2023-03-03T18:43:45.129Z,10.23
2023-03-03T18:46:20.891Z,8.55
2023-03-03T18:48:51.690Z,17.95
2023-03-03T18:51:36.941Z,11.15
2023-03-03T18:54:12.940Z,13.52
2023-03-03T18:56:47.261Z,11.50
2023-03-03T18:59:34.829Z,14.15
2023-03-03T19:02:33.247Z,11.27
2023-03-03T19:05:45.576Z,10.60
2023-03-03T19:08:53.526Z,10.23
2023-03-03T19:11:40.564Z,16.83
2023-03-03T19:14:31.008Z,12.30
2023-03-03T19:17:20.412Z,16.15
2023-03-03T19:20:05.993Z,13.07
2023-03-03T19:22:44.855Z,13.23
2023-03-03T19:25:17.456Z,12.63
2023-03-03T19:27:57.625Z,14.95
2023-03-03T19:30:42.069Z,15.48
2023-03-03T19:33:25.073Z,11.32
2023-03-03T19:36:04.632Z,18.98
2023-03-03T19:39:08.894Z,15.65
2023-03-03T19:41:53.630Z,32.75
2023-03-03T19:44:39.302Z,16.88
2023-03-03T19:47:44.525Z,14.27
2023-03-03T19:50:40.031Z,15.80
2023-03-03T19:53:25.446Z,14.77
2023-03-03T19:56:19.688Z,15.63
2023-03-03T19:59:14.969Z,22.85
2023-03-03T20:01:57.232Z,17.05
2023-03-03T20:04:50.700Z,22.33
2023-03-03T20:07:31.241Z,19.27
2023-03-03T20:10:15.879Z,28.80
2023-03-03T20:13:07.381Z,16.98
2023-03-03T20:15:37.166Z,16.25
2023-03-03T20:18:36.585Z,18.23
2023-03-03T20:21:23.396Z,16.75
2023-03-03T20:24:14.472Z,16.73
2023-03-03T20:27:15.084Z,17.33
2023-03-03T20:30:12.257Z,14.68
2023-03-03T20:32:59.525Z,13.48
2023-03-03T20:36:08.886Z,15.40
2023-03-03T20:38:57.235Z,13.95
2023-03-03T20:42:05.954Z,13.00
2023-03-03T20:44:48.877Z,19.38
2023-03-03T20:47:27.663Z,15.35
2023-03-03T20:50:28.771Z,17.27
2023-03-03T20:53:14.439Z,16.92
2023-03-03T20:56:00.994Z,19.13
2023-03-03T20:58:48.813Z,17.42
2023-03-03T21:01:35.080Z,21.35
2023-03-03T21:04:38.598Z,16.67
2023-03-03T21:07:07.380Z,19.52
2023-03-03T21:09:40.105Z,15.35
2023-03-03T21:12:29.774Z,17.20
2023-03-03T21:15:07.187Z,14.63
2023-03-03T21:17:34.116Z,14.23
2023-03-03T21:20:26.595Z,16.15
2023-03-03T21:22:54.843Z,13.93
2023-03-03T21:25:40.420Z,21.15
2023-03-03T21:28:14.134Z,17.65
2023-03-03T21:30:59.619Z,20.65
2023-03-03T21:33:51.774Z,22.02
2023-03-03T21:36:45.379Z,15.13
2023-03-03T21:39:22.726Z,16.08
2023-03-03T21:42:01.659Z,15.30
2023-03-03T21:44:34.058Z,16.17
2023-03-03T21:47:01.694Z,25.30
2023-03-03T21:49:28.753Z,19.25
2023-03-03T21:51:56.751Z,12.63
2023-03-03T21:54:24.650Z,17.30
2023-03-03T21:56:51.494Z,13.05
2023-03-03T21:59:18.679Z,31.83
2023-03-03T22:01:45.946Z,13.95
2023-03-03T22:04:12.615Z,14.93
2023-03-03T22:06:39.783Z,16.67
2023-03-03T22:09:07.317Z,17.83
2023-03-03T22:11:34.582Z,17.20
2023-03-03T22:14:01.550Z,22.73
2023-03-03T22:16:28.277Z,15.82
2023-03-03T22:18:55.052Z,19.73
2023-03-03T22:21:22.187Z,14.18
2023-03-03T22:23:48.890Z,18.73
2023-03-03T22:26:15.803Z,18.70
2023-03-03T22:28:44.379Z,15.57
2023-03-03T22:33:38.055Z,16.48
2023-03-03T22:36:05.032Z,18.50
2023-03-03T22:38:31.765Z,18.50
2023-03-03T22:40:58.478Z,14.38
2023-03-03T22:43:25.778Z,15.05
2023-03-03T22:45:52.689Z,13.57
2023-03-03T22:48:19.734Z,17.38
2023-03-03T22:50:47.438Z,16.17
2023-03-03T22:53:14.200Z,16.67
2023-03-03T22:55:42.008Z,15.10
2023-03-03T22:58:09.597Z,13.48
2023-03-03T23:00:39.887Z,15.60
2023-03-03T23:03:07.434Z,13.27
2023-03-03T23:05:35.767Z,10.35
2023-03-03T23:08:05.007Z,12.90
2023-03-03T23:10:31.822Z,15.90
2023-03-03T23:12:58.574Z,18.45
2023-03-03T23:15:25.351Z,11.85
2023-03-03T23:17:52.042Z,15.98
2023-03-03T23:20:25.236Z,16.80
2023-03-03T23:22:52.395Z,13.10
2023-03-03T23:25:20.071Z,12.02
2023-03-03T23:27:46.792Z,13.05
2023-03-03T23:30:15.508Z,16.20
2023-03-03T23:35:12.546Z,14.85
2023-03-03T23:37:39.657Z,17.80
2023-03-03T23:40:07.283Z,14.70
2023-03-03T23:42:34.078Z,18.08
2023-03-03T23:45:00.839Z,13.80
2023-03-03T23:47:27.521Z,11.93
2023-03-03T23:49:54.225Z,14.20
2023-03-03T23:52:20.960Z,18.05
2023-03-03T23:54:47.724Z,11.05
2023-03-03T23:57:14.429Z,13.80
2023-03-03T23:59:41.182Z,11.90
